»·PEaware :: N454FT KSBA-KBUR

N454FT :: KSBA-KBUR

FLIGHT INFORMATION

Flight Status: Arrived
Operator: Privately registered:
United States
More flights under this callsign
Pilot: Gary F. (18765)
Aircraft: CIRRUS SR-22
(SR22)
More flights by this aircraft type
Origin: KSBA Santa Barbara Mun
United States
Destination: KBUR Bob Hope-Burbank
United States
More flights between these airports :: More routes between these airports
Route: +
File this flight plan on PilotEdge
Remarks:
Altitude:
(Current/Filed)
7,500ft
Speed:
(Current/Filed)
0kts
Departed: 01-Oct-18 05:08 PM
Arrived: 01-Oct-18 05:46 PM
Distance/Time
Traveled:
75nm/0:38
Distance/Time
To Go:
Arrived

Flight Plot

Page will automatically refresh every two minutes.


Map Options




Map Legend


Flown Route
Filed Route
Departure Airport
Arrival Airport
Navaid (VOR, NDB)
Fix

Horizontal Profiles

Position Reports

Time Latitude Longitude Heading Altitude Ground
Speed
01-Oct-18 16:57 34.432568 -119.835094 71 12ft 0kts
01-Oct-18 16:58 34.432568 -119.835094 71 12ft 0kts
01-Oct-18 16:59 34.432568 -119.835094 71 12ft 0kts
01-Oct-18 17:00 34.432568 -119.835094 71 12ft 0kts
01-Oct-18 17:01 34.432568 -119.835094 71 12ft 0kts
01-Oct-18 17:02 34.432586 -119.835325 211 12ft 4kts
01-Oct-18 17:03 34.429576 -119.835302 179 9ft 13kts
01-Oct-18 17:04 34.428777 -119.834685 173 9ft 0kts
01-Oct-18 17:05 34.428777 -119.834685 173 9ft 0kts
01-Oct-18 17:06 34.428777 -119.834685 173 9ft 0kts
01-Oct-18 17:07 34.428777 -119.834685 173 9ft 0kts
01-Oct-18 17:08 34.428777 -119.834685 173 9ft 0kts
01-Oct-18 17:09 34.428777 -119.834685 173 9ft 0kts
01-Oct-18 17:10 34.427695 -119.849880 267 340ft 95kts
01-Oct-18 17:11 34.424847 -119.880069 262 1240ft 115kts
01-Oct-18 17:12 34.419177 -119.933164 262 1502ft 153kts
01-Oct-18 17:13 34.413541 -119.985591 262 1500ft 157kts
01-Oct-18 17:14 34.404795 -120.027454 217 1494ft 158kts
01-Oct-18 17:15 34.371189 -120.001090 80 1828ft 156kts
01-Oct-18 17:16 34.377727 -119.960003 79 2716ft 140kts
01-Oct-18 17:17 34.384967 -119.916236 79 3894ft 127kts
01-Oct-18 17:18 34.391834 -119.876524 79 5067ft 115kts
01-Oct-18 17:19 34.398276 -119.841549 79 6233ft 96kts
01-Oct-18 17:20 34.404481 -119.810071 79 7136ft 96kts
01-Oct-18 17:21 34.412773 -119.774294 85 7517ft 141kts
01-Oct-18 17:22 34.409283 -119.721825 101 7503ft 168kts
01-Oct-18 17:23 34.401187 -119.665304 102 7501ft 170kts
01-Oct-18 17:24 34.392853 -119.608606 102 7501ft 170kts
01-Oct-18 17:25 34.384590 -119.552530 102 7501ft 170kts
01-Oct-18 17:26 34.376272 -119.496100 103 7503ft 170kts
01-Oct-18 17:27 34.367949 -119.439417 103 7505ft 171kts
01-Oct-18 17:28 34.359597 -119.382780 103 7507ft 171kts
01-Oct-18 17:29 34.351123 -119.325587 103 7509ft 172kts
01-Oct-18 17:30 34.342697 -119.268998 104 7529ft 172kts
01-Oct-18 17:31 34.334052 -119.211763 104 7529ft 172kts
01-Oct-18 17:32 34.325371 -119.154598 104 7529ft 172kts
01-Oct-18 17:33 34.316670 -119.097478 103 7529ft 172kts
01-Oct-18 17:34 34.307960 -119.040488 103 7529ft 172kts
01-Oct-18 17:35 34.299178 -118.983372 103 7529ft 172kts
01-Oct-18 17:36 34.290107 -118.924954 103 7186ft 184kts
01-Oct-18 17:37 34.280553 -118.863504 103 6693ft 186kts
01-Oct-18 17:38 34.270844 -118.801154 103 6055ft 190kts
01-Oct-18 17:39 34.261031 -118.739359 102 5358ft 185kts
01-Oct-18 17:40 34.251956 -118.679888 102 4660ft 176kts
01-Oct-18 17:41 34.243352 -118.623707 103 3959ft 171kts
01-Oct-18 17:42 34.235611 -118.571906 104 3984ft 142kts
01-Oct-18 17:43 34.228313 -118.525007 104 3996ft 144kts
01-Oct-18 17:44 34.207126 -118.490203 146 4028ft 138kts
01-Oct-18 17:45 34.198164 -118.453538 87 3526ft 110kts
01-Oct-18 17:46 34.198437 -118.416725 89 2078ft 103kts
01-Oct-18 17:47 34.198109 -118.386233 89 1179ft 88kts
01-Oct-18 17:48 34.197874 -118.362764 88 719ft 26kts
01-Oct-18 17:49 34.196418 -118.360279 2 711ft 0kts

Navigation Log

Ident Type
1. KSBA Airport
2. KBUR Airport